This is the latest recevied weather packets stored in our database for station/object DG4DAZ-6. If no packets are shown the sender has not sent any weather packets the latest 10 day(s).
| Time | Temp. | Humidity | Pressure | Rain* | Wind** | Luminosity | Snow |
|---|---|---|---|---|---|---|---|
| 1777914084 | 13.33° C | 92% | 1012.1 hPa | 0.51 mm | - | 41 W/m² | - |
| 1777913483 | 13.33° C | 92% | 1012.1 hPa | 0.51 mm | - | 40 W/m² | - |
| 1777912883 | 13.33° C | 91% | 1012.1 hPa | 0.76 mm | - | 45 W/m² | - |
| 1777912283 | 13.33° C | 91% | 1012 hPa | 1.02 mm | - | 44 W/m² | - |
| 1777911684 | 13.33° C | 90% | 1012 hPa | 0.76 mm | - | 57 W/m² | - |
| 1777911084 | 13.33° C | 89% | 1012 hPa | 0.76 mm | - | 68 W/m² | - |
| 1777910484 | 13.33° C | 88% | 1012.1 hPa | 0.76 mm | - | 75 W/m² | - |
| 1777909883 | 13.89° C | 86% | 1012.1 hPa | 0.76 mm | - | 71 W/m² | - |
| 1777909283 | 14.44° C | 85% | 1012.1 hPa | 0.25 mm | - | 68 W/m² | - |
| 1777908684 | 15° C | 83% | 1012 hPa | 0 mm | - | 83 W/m² | - |
| 1777908083 | 15.56° C | 79% | 1012 hPa | 0 mm | - | 95 W/m² | - |
| 1777907483 | 16.67° C | 74% | 1011.8 hPa | 0 mm | - | 130 W/m² | - |
| 1777906883 | 17.22° C | 74% | 1011.6 hPa | 0 mm | - | 159 W/m² | - |
| 1777906284 | 17.22° C | 73% | 1011.6 hPa | 0 mm | - | 171 W/m² | - |
| 1777905684 | 17.22° C | 72% | 1011.6 hPa | 0 mm | - | 158 W/m² | - |
| 1777905083 | 17.22° C | 69% | 1011.6 hPa | 0 mm | - | 98 W/m² | - |
| 1777904484 | 17.22° C | 69% | 1011.6 hPa | 0 mm | - | 79 W/m² | - |
| 1777903884 | 17.78° C | 67% | 1011.6 hPa | 0 mm | - | 98 W/m² | - |
| 1777903283 | 17.78° C | 65% | 1011.5 hPa | 0 mm | - | 122 W/m² | - |
| 1777902682 | 18.33° C | 62% | 1011.4 hPa | 0 mm | - | 145 W/m² | - |
| 1777902084 | 18.33° C | 61% | 1011.4 hPa | 0 mm | - | 182 W/m² | - |
| 1777901483 | 18.33° C | 59% | 1011.4 hPa | 0 mm | - | 192 W/m² | - |
| 1777900882 | 18.89° C | 59% | 1011.5 hPa | 0 mm | - | 212 W/m² | - |
| 1777900284 | 18.89° C | 62% | 1011.6 hPa | 0 mm | - | 309 W/m² | - |
| 1777899683 | 18.89° C | 65% | 1011.6 hPa | 0 mm | - | 378 W/m² | - |
* Rain latest hour (hover to see other rain measurements)
** Current wind speed in m/s (hover to see current wind gust speed)